createdAt,value
2022-12-05T00:01:32.464Z,12.95
2022-12-05T00:04:01.840Z,13.25
2022-12-05T00:06:31.089Z,13.80
2022-12-05T00:08:58.686Z,12.88
2022-12-05T00:11:31.463Z,13.82
2022-12-05T00:14:00.145Z,13.95
2022-12-05T00:16:29.779Z,13.68
2022-12-05T00:19:00.338Z,13.45
2022-12-05T00:21:30.453Z,12.80
2022-12-05T00:23:59.632Z,15.80
2022-12-05T00:26:27.783Z,17.38
2022-12-05T00:28:56.561Z,15.55
2022-12-05T00:31:25.474Z,14.85
2022-12-05T00:33:53.658Z,13.65
2022-12-05T00:36:26.573Z,13.23
2022-12-05T00:38:55.166Z,12.88
2022-12-05T00:41:25.815Z,13.00
2022-12-05T00:43:54.069Z,15.00
2022-12-05T00:46:23.772Z,12.88
2022-12-05T00:48:53.727Z,14.93
2022-12-05T00:51:29.867Z,14.35
2022-12-05T00:54:02.896Z,16.75
2022-12-05T00:56:31.667Z,14.85
2022-12-05T00:59:00.434Z,12.85
2022-12-05T01:01:35.558Z,13.07
2022-12-05T01:04:10.563Z,13.82
2022-12-05T01:06:38.634Z,12.40
2022-12-05T01:09:06.624Z,12.73
2022-12-05T01:11:40.788Z,13.40
2022-12-05T01:14:10.157Z,18.25
2022-12-05T01:16:39.416Z,17.08
2022-12-05T01:19:19.542Z,16.00
2022-12-05T01:21:47.913Z,13.43
2022-12-05T01:24:15.860Z,14.35
2022-12-05T01:26:44.106Z,13.30
2022-12-05T01:29:14.260Z,11.13
2022-12-05T01:31:42.304Z,14.45
2022-12-05T01:34:13.059Z,17.65
2022-12-05T01:36:40.725Z,13.70
2022-12-05T01:39:10.167Z,13.68
2022-12-05T01:41:40.960Z,14.88
2022-12-05T01:44:28.295Z,13.88
2022-12-05T01:46:56.692Z,12.77
2022-12-05T01:49:39.925Z,14.60
2022-12-05T01:52:27.792Z,19.10
2022-12-05T01:55:00.167Z,14.73
2022-12-05T01:57:27.671Z,11.90
2022-12-05T02:00:00.512Z,13.82
2022-12-05T02:02:31.265Z,15.00
2022-12-05T02:05:07.200Z,12.82
2022-12-05T02:07:37.110Z,10.82
2022-12-05T02:10:04.886Z,14.52
2022-12-05T02:12:32.931Z,12.18
2022-12-05T02:15:26.259Z,14.77
2022-12-05T02:18:20.676Z,13.00
2022-12-05T02:21:16.706Z,14.45
2022-12-05T02:24:12.412Z,11.13
2022-12-05T02:27:05.564Z,13.90
2022-12-05T02:29:41.566Z,17.23
2022-12-05T02:32:26.516Z,14.98
2022-12-05T02:34:56.398Z,14.63
2022-12-05T02:37:29.897Z,12.60
2022-12-05T02:40:05.575Z,15.32
2022-12-05T02:42:43.155Z,12.80
2022-12-05T02:45:15.229Z,13.05
2022-12-05T02:47:52.118Z,15.07
2022-12-05T02:50:23.551Z,12.23
2022-12-05T02:52:54.078Z,14.75
2022-12-05T02:55:23.611Z,13.95
2022-12-05T02:57:57.096Z,12.18
2022-12-05T03:00:24.759Z,12.73
2022-12-05T03:02:56.055Z,13.82
2022-12-05T03:05:43.499Z,12.18
2022-12-05T03:08:16.918Z,13.98
2022-12-05T03:10:46.083Z,11.65
2022-12-05T03:13:20.619Z,11.50
2022-12-05T03:18:29.440Z,15.63
2022-12-05T03:21:04.624Z,11.02
2022-12-05T03:23:36.859Z,11.48
2022-12-05T03:26:23.344Z,11.60
2022-12-05T03:28:53.607Z,12.43
2022-12-05T03:31:32.403Z,13.77
2022-12-05T03:34:00.592Z,10.88
2022-12-05T03:36:41.576Z,11.43
2022-12-05T03:39:23.629Z,13.02
2022-12-05T03:42:09.631Z,10.57
2022-12-05T03:44:51.411Z,9.05
2022-12-05T03:47:36.404Z,9.43
2022-12-05T03:50:30.060Z,10.30
2022-12-05T03:53:19.711Z,10.85
2022-12-05T03:55:54.867Z,9.27
2022-12-05T03:58:38.587Z,10.25
2022-12-05T04:01:08.293Z,9.95
2022-12-05T04:03:47.439Z,11.02
2022-12-05T04:06:30.807Z,10.73
2022-12-05T04:09:02.755Z,9.32
2022-12-05T04:11:35.633Z,8.23
2022-12-05T04:14:13.773Z,9.77
2022-12-05T04:17:03.352Z,10.50
2022-12-05T04:19:55.011Z,9.68
2022-12-05T04:22:24.995Z,12.38
2022-12-05T04:25:13.310Z,10.82
2022-12-05T04:27:46.281Z,11.45
2022-12-05T04:30:23.549Z,10.85
2022-12-05T04:33:12.245Z,13.55
2022-12-05T04:35:48.503Z,13.52
2022-12-05T04:38:21.721Z,13.93
2022-12-05T04:41:06.384Z,12.20
2022-12-05T04:43:39.448Z,13.05
2022-12-05T04:46:11.959Z,9.73
2022-12-05T04:48:42.571Z,10.38
2022-12-05T04:51:16.282Z,10.80
2022-12-05T04:53:45.143Z,11.07
2022-12-05T04:56:16.745Z,10.52
2022-12-05T04:58:44.109Z,11.38
2022-12-05T05:01:22.405Z,10.50
2022-12-05T05:04:17.162Z,9.23
2022-12-05T05:06:44.345Z,9.48
2022-12-05T05:09:11.916Z,12.98
2022-12-05T05:11:39.136Z,10.05
2022-12-05T05:14:06.663Z,9.50
2022-12-05T05:16:37.465Z,10.23
2022-12-05T05:19:06.371Z,9.38
2022-12-05T05:21:41.670Z,10.23
2022-12-05T05:24:11.063Z,9.10
2022-12-05T05:26:44.002Z,9.07
2022-12-05T05:29:11.809Z,10.35
2022-12-05T05:31:40.472Z,7.95
2022-12-05T05:34:09.823Z,8.90
2022-12-05T05:36:38.179Z,8.43
2022-12-05T05:39:09.758Z,10.40
2022-12-05T05:41:36.998Z,8.48
2022-12-05T05:44:04.840Z,9.98
2022-12-05T05:46:34.449Z,11.40
2022-12-05T05:49:01.708Z,10.18
2022-12-05T05:51:30.352Z,8.20
2022-12-05T05:53:58.755Z,10.98
2022-12-05T05:56:26.259Z,7.80
2022-12-05T05:59:02.309Z,9.45
2022-12-05T06:01:30.404Z,8.65
2022-12-05T06:03:58.421Z,8.85
2022-12-05T06:06:26.492Z,8.27
2022-12-05T06:08:54.896Z,9.70
2022-12-05T06:11:26.734Z,8.52
2022-12-05T06:14:01.285Z,8.07
2022-12-05T06:16:30.599Z,9.57
2022-12-05T06:18:58.644Z,9.13
2022-12-05T06:21:26.248Z,9.13
2022-12-05T06:23:53.975Z,10.93
2022-12-05T06:26:21.866Z,7.13
2022-12-05T06:28:49.190Z,10.23
2022-12-05T06:31:19.934Z,8.68
2022-12-05T06:33:47.781Z,7.32
2022-12-05T06:36:18.756Z,7.43
2022-12-05T06:38:46.334Z,6.85
2022-12-05T06:41:19.067Z,9.95
2022-12-05T06:43:47.051Z,8.93
2022-12-05T06:46:16.054Z,10.80
2022-12-05T06:48:43.897Z,8.38
2022-12-05T06:51:13.536Z,11.50
2022-12-05T06:53:41.644Z,8.52
2022-12-05T06:56:16.423Z,9.00
2022-12-05T06:58:45.999Z,9.93
2022-12-05T07:01:34.102Z,8.00
2022-12-05T07:04:01.874Z,7.93
2022-12-05T07:06:29.415Z,8.15
2022-12-05T07:08:56.761Z,10.18
2022-12-05T07:11:24.225Z,8.02
2022-12-05T07:13:51.717Z,8.15
2022-12-05T07:16:19.052Z,8.32
2022-12-05T07:18:46.490Z,7.60
2022-12-05T07:21:15.657Z,8.00
2022-12-05T07:23:46.024Z,8.07
2022-12-05T07:26:19.016Z,10.98
2022-12-05T07:28:46.803Z,8.48
2022-12-05T07:31:17.802Z,8.25
2022-12-05T07:33:45.414Z,7.93
2022-12-05T07:36:15.309Z,7.03
2022-12-05T07:38:43.333Z,5.60
2022-12-05T07:41:19.404Z,6.70
2022-12-05T07:43:46.681Z,8.07
2022-12-05T07:46:14.124Z,6.70
2022-12-05T07:48:41.454Z,6.10
2022-12-05T07:51:10.854Z,5.43
2022-12-05T07:53:41.602Z,4.93
2022-12-05T07:56:10.879Z,8.50
2022-12-05T07:58:38.260Z,8.80
2022-12-05T08:01:13.696Z,10.27
2022-12-05T08:03:41.405Z,11.82
2022-12-05T08:06:11.157Z,10.35
2022-12-05T08:08:39.032Z,9.52
2022-12-05T08:11:08.212Z,11.38
2022-12-05T08:13:35.423Z,12.18
2022-12-05T08:16:04.978Z,8.15
2022-12-05T08:18:32.584Z,13.48
2022-12-05T08:21:07.953Z,10.25
2022-12-05T08:23:36.293Z,8.27
2022-12-05T08:26:09.886Z,8.35
2022-12-05T08:28:38.147Z,9.40
2022-12-05T08:31:13.737Z,9.90
2022-12-05T08:33:41.575Z,9.43
2022-12-05T08:36:11.907Z,9.80
2022-12-05T08:38:39.550Z,7.22
2022-12-05T08:41:10.416Z,9.27
2022-12-05T08:43:37.633Z,7.68
2022-12-05T08:46:05.567Z,8.02
2022-12-05T08:48:33.928Z,7.30
2022-12-05T08:51:06.214Z,6.63
2022-12-05T08:53:33.617Z,8.15
2022-12-05T08:56:05.192Z,8.15
2022-12-05T08:58:32.815Z,7.03
2022-12-05T09:01:14.743Z,7.82
2022-12-05T09:03:47.544Z,7.32
2022-12-05T09:06:24.017Z,7.60
2022-12-05T09:08:56.791Z,8.05
2022-12-05T09:11:28.929Z,7.45
2022-12-05T09:13:59.219Z,7.22
2022-12-05T09:16:38.794Z,8.70
2022-12-05T09:19:17.597Z,7.30
2022-12-05T09:21:45.076Z,8.90
2022-12-05T09:24:13.689Z,7.93
2022-12-05T09:26:41.811Z,7.10
2022-12-05T09:29:15.765Z,13.15
2022-12-05T09:31:44.958Z,7.78
2022-12-05T09:34:14.234Z,7.55
2022-12-05T09:36:41.667Z,8.55
2022-12-05T09:39:10.153Z,7.20
2022-12-05T09:42:05.059Z,7.35
2022-12-05T09:44:54.129Z,6.68
2022-12-05T09:47:38.802Z,4.88
2022-12-05T09:50:18.042Z,6.32
2022-12-05T09:52:59.274Z,6.38
2022-12-05T09:55:33.664Z,6.93
2022-12-05T09:58:03.312Z,7.03
2022-12-05T10:00:32.490Z,6.15
2022-12-05T10:03:36.905Z,7.53
2022-12-05T10:06:13.601Z,8.32
2022-12-05T10:08:53.681Z,7.75
2022-12-05T10:11:42.164Z,7.47
2022-12-05T10:14:20.581Z,6.43
2022-12-05T10:16:53.963Z,6.47
2022-12-05T10:19:25.986Z,5.47
2022-12-05T10:22:20.247Z,5.72
2022-12-05T10:24:56.482Z,7.38
2022-12-05T10:27:39.987Z,7.20
2022-12-05T10:30:22.810Z,6.90
2022-12-05T10:33:07.900Z,6.57
2022-12-05T10:35:38.903Z,5.72
2022-12-05T10:38:26.330Z,6.75
2022-12-05T10:40:57.742Z,5.47
2022-12-05T10:43:31.276Z,6.05
2022-12-05T10:45:59.633Z,6.63
2022-12-05T10:48:27.976Z,5.97
2022-12-05T10:50:57.708Z,5.88
2022-12-05T10:53:29.872Z,6.35
2022-12-05T10:58:56.667Z,6.25
2022-12-05T11:01:26.191Z,6.57
2022-12-05T11:03:59.879Z,5.90
2022-12-05T11:06:29.949Z,6.72
2022-12-05T11:09:17.036Z,7.47
2022-12-05T11:12:01.920Z,6.88
2022-12-05T11:17:01.332Z,4.85
2022-12-05T11:19:37.173Z,7.60
2022-12-05T11:22:08.022Z,5.82
2022-12-05T11:24:39.615Z,5.22
2022-12-05T11:27:16.046Z,7.80
2022-12-05T11:29:45.568Z,6.97
2022-12-05T11:32:25.476Z,6.18
2022-12-05T11:35:05.852Z,5.47
2022-12-05T11:37:52.763Z,6.38
2022-12-05T11:41:03.984Z,5.90
2022-12-05T11:43:43.383Z,5.78
2022-12-05T11:46:55.318Z,4.93
2022-12-05T11:49:54.212Z,5.28
2022-12-05T11:52:48.052Z,6.82
2022-12-05T11:55:43.692Z,6.22
2022-12-05T11:58:13.589Z,6.38
2022-12-05T12:00:55.646Z,5.68
2022-12-05T12:03:43.991Z,6.38
2022-12-05T12:06:46.705Z,4.32
2022-12-05T12:09:38.724Z,5.25
2022-12-05T12:12:11.664Z,5.18
2022-12-05T12:15:01.879Z,5.85
2022-12-05T12:17:54.600Z,6.88
2022-12-05T12:20:35.158Z,5.30
2022-12-05T12:23:30.319Z,6.40
2022-12-05T12:26:06.410Z,5.00
2022-12-05T12:28:48.833Z,5.43
2022-12-05T12:31:38.735Z,6.28
2022-12-05T12:34:33.275Z,5.57
2022-12-05T12:37:24.169Z,5.70
2022-12-05T12:39:58.974Z,4.47
2022-12-05T12:42:54.123Z,5.40
2022-12-05T12:45:48.064Z,4.80
2022-12-05T12:48:21.417Z,6.13
2022-12-05T12:50:53.041Z,5.95
2022-12-05T12:53:50.901Z,4.90
2022-12-05T12:56:38.796Z,6.03
2022-12-05T12:59:06.029Z,4.68
2022-12-05T13:01:52.779Z,5.30
2022-12-05T13:04:31.978Z,4.10
2022-12-05T13:07:20.508Z,4.85
2022-12-05T13:09:59.003Z,3.65
2022-12-05T13:12:30.806Z,4.55
2022-12-05T13:15:02.855Z,5.03
2022-12-05T13:17:32.038Z,4.22
2022-12-05T13:20:00.384Z,4.10
2022-12-05T13:22:29.332Z,5.90
2022-12-05T13:24:57.100Z,4.65
2022-12-05T13:27:28.521Z,3.80
2022-12-05T13:30:02.501Z,4.35
2022-12-05T13:32:37.051Z,3.50
2022-12-05T13:35:07.287Z,2.97
2022-12-05T13:37:54.243Z,3.85
2022-12-05T13:40:45.943Z,4.10
2022-12-05T13:43:22.801Z,2.80
2022-12-05T13:46:12.109Z,2.88
2022-12-05T13:48:42.991Z,2.90
2022-12-05T13:51:36.096Z,3.40
2022-12-05T13:54:11.516Z,2.80
2022-12-05T13:56:52.367Z,3.10
2022-12-05T13:59:57.531Z,3.22
2022-12-05T14:07:46.203Z,2.53
2022-12-05T14:10:28.769Z,2.13
2022-12-05T14:13:01.918Z,2.35
2022-12-05T14:15:34.060Z,2.85
2022-12-05T14:18:24.038Z,2.38
2022-12-05T14:21:12.318Z,2.53
2022-12-05T14:24:07.716Z,2.70
2022-12-05T14:27:07.608Z,2.90
2022-12-05T14:29:39.999Z,2.17
2022-12-05T14:32:24.516Z,2.10
2022-12-05T14:35:16.052Z,1.95
2022-12-05T14:37:50.878Z,1.52
2022-12-05T14:40:23.953Z,1.80
2022-12-05T14:43:16.886Z,2.00
2022-12-05T14:45:58.171Z,2.65
2022-12-05T14:48:33.366Z,1.73
2022-12-05T14:51:02.659Z,1.70
2022-12-05T14:53:37.689Z,3.22
2022-12-05T14:56:18.638Z,3.10
2022-12-05T14:59:00.050Z,1.48
2022-12-05T15:01:43.348Z,1.98
2022-12-05T15:04:35.169Z,2.28
2022-12-05T15:07:18.638Z,2.60
2022-12-05T15:10:01.278Z,2.08
2022-12-05T15:12:47.809Z,2.13
2022-12-05T15:15:41.718Z,1.92
2022-12-05T15:18:42.557Z,2.45
2022-12-05T15:21:20.051Z,1.80
2022-12-05T15:23:57.932Z,1.95
2022-12-05T15:26:54.750Z,1.65
2022-12-05T15:29:33.134Z,1.27
2022-12-05T15:32:12.131Z,0.95
2022-12-05T15:35:02.540Z,1.10
2022-12-05T15:37:56.380Z,1.00
2022-12-05T15:40:26.097Z,1.20
2022-12-05T15:42:57.715Z,2.03
2022-12-05T15:45:30.633Z,2.30
2022-12-05T15:48:12.347Z,1.02
2022-12-05T15:50:43.284Z,1.60
2022-12-05T15:53:26.602Z,1.50
2022-12-05T15:56:04.692Z,1.17
2022-12-05T15:59:07.979Z,1.45
2022-12-05T16:01:43.457Z,1.00
2022-12-05T16:04:29.219Z,1.67
2022-12-05T16:07:00.638Z,1.33
2022-12-05T16:09:32.233Z,1.10
2022-12-05T16:12:02.707Z,1.10
2022-12-05T16:14:59.055Z,1.13
2022-12-05T16:17:24.646Z,0.85
2022-12-05T16:19:52.108Z,1.30
2022-12-05T16:22:29.132Z,1.08
2022-12-05T16:25:01.368Z,1.38
2022-12-05T16:27:35.463Z,1.52
2022-12-05T16:30:20.135Z,1.65
2022-12-05T16:32:49.868Z,1.38
2022-12-05T16:35:51.504Z,1.08
2022-12-05T16:38:21.078Z,0.90
2022-12-05T16:41:02.790Z,0.88
2022-12-05T16:43:33.201Z,1.08
2022-12-05T16:46:27.700Z,1.08
2022-12-05T16:49:13.654Z,0.93
2022-12-05T16:51:44.298Z,1.70
2022-12-05T16:54:11.600Z,1.13
2022-12-05T16:56:39.775Z,1.00
2022-12-05T16:59:13.736Z,0.70
2022-12-05T17:01:40.987Z,0.80
2022-12-05T17:04:11.670Z,0.80
2022-12-05T17:06:39.480Z,0.80
2022-12-05T17:09:06.672Z,0.90
2022-12-05T17:11:37.261Z,0.82
2022-12-05T17:14:04.770Z,1.10
2022-12-05T17:16:32.205Z,0.70
2022-12-05T17:18:59.480Z,1.00
2022-12-05T17:21:31.515Z,0.60
2022-12-05T17:23:58.711Z,0.85
2022-12-05T17:26:26.648Z,0.80
2022-12-05T17:28:54.009Z,0.82
2022-12-05T17:31:23.906Z,0.80
2022-12-05T17:33:53.275Z,1.58
2022-12-05T17:36:21.311Z,0.90
2022-12-05T17:38:49.361Z,1.20
2022-12-05T17:41:19.717Z,1.70
2022-12-05T17:43:47.525Z,1.63
2022-12-05T17:46:23.364Z,1.23
2022-12-05T17:48:51.845Z,1.80
2022-12-05T17:51:20.414Z,1.50
2022-12-05T17:53:47.923Z,1.10
2022-12-05T17:56:15.690Z,1.30
2022-12-05T17:58:43.206Z,1.42
2022-12-05T18:01:16.265Z,1.20
2022-12-05T18:03:43.776Z,1.65
2022-12-05T18:06:11.602Z,1.23
2022-12-05T18:08:40.047Z,1.50
2022-12-05T18:11:07.621Z,1.08
2022-12-05T18:13:35.061Z,1.85
2022-12-05T18:16:02.655Z,1.20
2022-12-05T18:18:30.413Z,17.70
2022-12-05T18:21:23.731Z,5.70
2022-12-05T18:23:51.924Z,4.63
2022-12-05T18:26:19.169Z,10.07
2022-12-05T18:28:47.117Z,16.52
2022-12-05T18:31:17.331Z,5.25
2022-12-05T18:33:45.343Z,3.85
2022-12-05T18:36:16.156Z,5.20
2022-12-05T18:38:49.301Z,3.47
2022-12-05T18:41:16.508Z,3.08
2022-12-05T18:43:43.628Z,2.72
2022-12-05T18:46:10.890Z,6.43
2022-12-05T18:48:40.013Z,20.67
2022-12-05T18:51:09.871Z,13.18
2022-12-05T18:53:37.118Z,30.85
2022-12-05T18:56:25.910Z,31.83
2022-12-05T18:58:55.249Z,25.67
2022-12-05T19:01:22.568Z,16.83
2022-12-05T19:03:50.531Z,17.80
2022-12-05T19:06:20.093Z,13.45
2022-12-05T19:08:47.498Z,6.82
2022-12-05T19:11:17.856Z,13.10
2022-12-05T19:13:45.209Z,6.72
2022-12-05T19:16:19.571Z,5.22
2022-12-05T19:21:14.619Z,2.90
2022-12-05T19:23:41.816Z,2.90
2022-12-05T19:26:10.572Z,2.40
2022-12-05T19:28:38.721Z,1.83
2022-12-05T19:31:08.873Z,3.20
2022-12-05T19:33:41.953Z,2.53
2022-12-05T19:36:12.211Z,1.88
2022-12-05T19:38:41.482Z,1.67
2022-12-05T19:41:11.095Z,1.75
2022-12-05T19:43:39.446Z,8.00
2022-12-05T19:46:33.816Z,7.72
2022-12-05T19:49:11.992Z,4.78
2022-12-05T19:51:39.374Z,5.00
2022-12-05T19:54:07.921Z,8.73
2022-12-05T19:56:37.240Z,8.45
2022-12-05T19:59:06.362Z,6.55
2022-12-05T20:01:36.529Z,7.63
2022-12-05T20:04:09.782Z,4.60
2022-12-05T20:06:44.919Z,3.97
2022-12-05T20:09:13.837Z,2.33
2022-12-05T20:11:43.891Z,2.22
2022-12-05T20:14:12.694Z,1.75
2022-12-05T20:16:40.781Z,1.77
2022-12-05T20:19:08.792Z,1.40
2022-12-05T20:21:37.284Z,2.20
2022-12-05T20:24:05.355Z,1.50
2022-12-05T20:26:35.655Z,2.00
2022-12-05T20:29:03.945Z,1.50
2022-12-05T20:31:37.326Z,1.30
2022-12-05T20:34:05.697Z,1.48
2022-12-05T20:36:34.769Z,1.13
2022-12-05T20:39:04.662Z,1.17
2022-12-05T20:41:32.178Z,1.77
2022-12-05T20:44:02.008Z,1.08
2022-12-05T20:46:30.379Z,1.25
2022-12-05T20:48:57.727Z,1.27
2022-12-05T20:51:27.439Z,1.80
2022-12-05T20:53:55.053Z,2.25
2022-12-05T20:56:28.312Z,1.98
2022-12-05T20:58:58.025Z,2.65
2022-12-05T21:01:27.094Z,3.72
2022-12-05T21:03:55.206Z,2.33
2022-12-05T21:06:23.539Z,1.90
2022-12-05T21:08:51.951Z,3.88
2022-12-05T21:11:19.323Z,1.75
2022-12-05T21:13:46.692Z,2.10
2022-12-05T21:16:18.367Z,3.10
2022-12-05T21:18:46.038Z,3.17
2022-12-05T21:21:17.065Z,6.20
2022-12-05T21:23:45.883Z,4.93
2022-12-05T21:26:15.725Z,9.38
2022-12-05T21:28:44.558Z,8.70
2022-12-05T21:31:17.993Z,6.90
2022-12-05T21:33:53.770Z,12.32
2022-12-05T21:36:22.219Z,16.40
2022-12-05T21:38:54.161Z,17.17
2022-12-05T21:41:24.490Z,9.25
2022-12-05T21:43:54.958Z,5.25
2022-12-05T21:46:24.221Z,4.50
2022-12-05T21:48:51.550Z,3.95
2022-12-05T21:51:18.988Z,4.07
2022-12-05T21:53:46.309Z,2.28
2022-12-05T21:56:16.073Z,2.70
2022-12-05T21:58:45.085Z,2.45
2022-12-05T22:01:20.118Z,2.22
2022-12-05T22:03:47.739Z,2.10
2022-12-05T22:06:15.524Z,1.60
2022-12-05T22:08:43.985Z,2.72
2022-12-05T22:11:14.051Z,1.75
2022-12-05T22:13:42.224Z,2.75
2022-12-05T22:16:09.635Z,2.90
2022-12-05T22:18:37.527Z,3.72
2022-12-05T22:21:19.856Z,4.38
2022-12-05T22:23:48.305Z,1.83
2022-12-05T22:26:18.527Z,1.63
2022-12-05T22:28:46.418Z,2.92
2022-12-05T22:31:15.893Z,1.77
2022-12-05T22:33:44.197Z,2.33
2022-12-05T22:36:14.256Z,1.30
2022-12-05T22:38:43.601Z,1.70
2022-12-05T22:41:16.718Z,1.30
2022-12-05T22:43:45.927Z,1.42
2022-12-05T22:46:18.968Z,1.55
2022-12-05T22:48:47.801Z,1.88
2022-12-05T22:51:17.086Z,1.60
2022-12-05T22:53:44.846Z,2.13
2022-12-05T22:56:17.653Z,1.65
2022-12-05T22:58:46.864Z,0.95
2022-12-05T23:01:17.043Z,1.15
2022-12-05T23:03:46.285Z,1.42
2022-12-05T23:06:15.441Z,1.10
2022-12-05T23:08:44.679Z,1.15
2022-12-05T23:11:12.213Z,1.10
2022-12-05T23:13:39.957Z,1.90
2022-12-05T23:16:08.521Z,1.50
2022-12-05T23:18:48.756Z,1.38
2022-12-05T23:21:21.787Z,1.65
2022-12-05T23:23:50.625Z,1.17
2022-12-05T23:26:19.936Z,1.40
2022-12-05T23:28:47.543Z,1.38
2022-12-05T23:31:15.355Z,1.20
2022-12-05T23:33:43.377Z,1.08
2022-12-05T23:36:10.856Z,1.83
2022-12-05T23:38:40.343Z,1.10
2022-12-05T23:41:11.554Z,1.08
2022-12-05T23:43:39.324Z,1.92
2022-12-05T23:46:09.427Z,1.10
2022-12-05T23:48:36.950Z,1.08
2022-12-05T23:51:10.535Z,1.15
2022-12-05T23:53:40.291Z,1.35
2022-12-05T23:56:12.394Z,0.95
2022-12-05T23:58:40.514Z,1.00
